createdAt,value
2023-05-14T00:01:41.974Z,13.21
2023-05-14T00:06:45.300Z,13.20
2023-05-14T00:11:48.502Z,13.39
2023-05-14T00:16:53.010Z,13.38
2023-05-14T00:21:55.870Z,13.32
2023-05-14T00:26:59.021Z,13.29
2023-05-14T00:32:04.149Z,13.25
2023-05-14T00:37:07.047Z,12.96
2023-05-14T00:42:09.920Z,13.11
2023-05-14T00:47:14.794Z,13.13
2023-05-14T00:52:19.010Z,12.71
2023-05-14T00:57:22.039Z,12.82
2023-05-14T01:02:26.392Z,13.03
2023-05-14T01:07:37.483Z,13.04
2023-05-14T01:12:48.589Z,12.93
2023-05-14T01:17:55.819Z,12.93
2023-05-14T01:23:00.364Z,12.85
2023-05-14T01:28:10.541Z,12.82
2023-05-14T01:33:18.351Z,12.76
2023-05-14T01:38:23.921Z,12.67
2023-05-14T01:43:27.485Z,12.68
2023-05-14T01:48:30.852Z,12.58
2023-05-14T01:53:35.464Z,12.52
2023-05-14T01:58:38.551Z,12.57
2023-05-14T02:03:41.887Z,12.51
2023-05-14T02:08:46.357Z,12.47
2023-05-14T02:13:50.432Z,12.41
2023-05-14T02:18:53.804Z,12.33
2023-05-14T02:23:58.243Z,12.28
2023-05-14T02:29:01.234Z,12.23
2023-05-14T02:34:05.262Z,12.21
2023-05-14T02:39:09.690Z,12.17
2023-05-14T02:44:12.996Z,12.13
2023-05-14T02:49:16.008Z,12.07
2023-05-14T02:54:21.037Z,11.94
2023-05-14T02:59:26.380Z,12.01
2023-05-14T03:04:29.993Z,11.93
2023-05-14T03:09:36.010Z,11.82
2023-05-14T03:14:40.475Z,11.80
2023-05-14T03:19:43.576Z,11.74
2023-05-14T03:24:47.953Z,11.68
2023-05-14T03:29:51.123Z,11.61
2023-05-14T03:34:54.115Z,11.59
2023-05-14T03:39:59.021Z,11.56
2023-05-14T03:45:02.039Z,11.51
2023-05-14T03:50:05.518Z,11.51
2023-05-14T03:55:11.019Z,11.49
2023-05-14T04:00:14.881Z,11.50
2023-05-14T04:05:20.885Z,11.52
2023-05-14T04:10:25.679Z,11.51
2023-05-14T04:15:30.076Z,11.57
2023-05-14T04:20:33.527Z,11.60
2023-05-14T04:25:37.971Z,11.59
2023-05-14T04:30:40.988Z,11.68
2023-05-14T04:35:46.219Z,11.74
2023-05-14T04:40:50.778Z,11.67
2023-05-14T04:45:53.840Z,11.85
2023-05-14T04:50:56.958Z,11.93
2023-05-14T04:56:01.505Z,11.96
2023-05-14T05:01:06.155Z,12.03
2023-05-14T05:06:09.275Z,12.06
2023-05-14T05:11:13.622Z,12.09
2023-05-14T05:16:16.605Z,12.19
2023-05-14T05:21:19.810Z,12.27
2023-05-14T05:26:24.339Z,12.37
2023-05-14T05:31:27.504Z,12.43
2023-05-14T05:36:31.081Z,12.66
2023-05-14T05:41:35.457Z,12.88
2023-05-14T05:46:38.824Z,13.02
2023-05-14T05:51:41.925Z,13.09
2023-05-14T05:56:46.491Z,13.26
2023-05-14T06:01:49.783Z,13.42
2023-05-14T06:06:52.759Z,13.45
2023-05-14T06:11:57.104Z,13.58
2023-05-14T06:17:00.327Z,13.73
2023-05-14T06:22:03.614Z,13.90
2023-05-14T06:27:08.302Z,14.04
2023-05-14T06:32:14.336Z,14.25
2023-05-14T06:37:17.473Z,14.42
2023-05-14T06:42:22.221Z,14.65
2023-05-14T06:47:25.509Z,14.97
2023-05-14T06:52:28.611Z,14.66
2023-05-14T06:57:34.085Z,15.04
2023-05-14T07:02:37.512Z,15.29
2023-05-14T07:07:40.523Z,15.34
2023-05-14T07:12:45.263Z,15.65
2023-05-14T07:17:48.569Z,16.20
2023-05-14T07:22:52.297Z,16.35
2023-05-14T07:27:56.693Z,16.39
2023-05-14T07:32:59.876Z,16.45
2023-05-14T07:38:03.235Z,16.58
2023-05-14T07:43:07.647Z,16.89
2023-05-14T07:48:11.451Z,17.17
2023-05-14T07:53:14.646Z,17.13
2023-05-14T07:58:19.033Z,17.12
2023-05-14T08:03:22.146Z,17.47
2023-05-14T08:08:25.191Z,17.70
2023-05-14T08:13:29.734Z,17.52
2023-05-14T08:18:32.749Z,17.31
2023-05-14T08:23:35.921Z,17.52
2023-05-14T08:28:40.329Z,18.04
2023-05-14T08:33:43.815Z,18.44
2023-05-14T08:38:47.065Z,18.43
2023-05-14T08:44:04.199Z,18.63
2023-05-14T08:49:17.398Z,18.89
2023-05-14T08:54:22.632Z,18.94
2023-05-14T08:59:27.168Z,18.98
2023-05-14T09:04:35.605Z,19.03
2023-05-14T09:09:40.184Z,19.37
2023-05-14T09:14:45.902Z,19.71
2023-05-14T09:19:53.188Z,19.86
2023-05-14T09:25:07.155Z,19.76
2023-05-14T09:30:14.145Z,19.73
2023-05-14T09:35:19.329Z,19.96
2023-05-14T09:40:24.384Z,20.37
2023-05-14T09:45:30.538Z,20.31
2023-05-14T09:50:33.638Z,20.47
2023-05-14T09:55:37.805Z,20.58
2023-05-14T10:00:45.394Z,20.66
2023-05-14T10:05:51.669Z,21.03
2023-05-14T10:10:56.547Z,20.91
2023-05-14T10:16:09.436Z,21.17
2023-05-14T10:21:12.835Z,21.12
2023-05-14T10:26:16.674Z,21.22
2023-05-14T10:31:24.492Z,21.42
2023-05-14T10:36:27.647Z,21.54
2023-05-14T10:41:30.675Z,21.75
2023-05-14T10:46:35.047Z,21.79
2023-05-14T10:51:38.196Z,21.97
2023-05-14T10:56:41.311Z,22.09
2023-05-14T11:01:47.112Z,22.13
2023-05-14T11:06:53.179Z,22.33
2023-05-14T11:11:56.522Z,22.47
2023-05-14T11:17:01.071Z,22.33
2023-05-14T11:22:04.573Z,22.35
2023-05-14T11:27:09.145Z,22.59
2023-05-14T11:32:14.935Z,22.96
2023-05-14T11:37:18.565Z,22.97
2023-05-14T11:42:23.741Z,23.01
2023-05-14T11:47:30.467Z,23.12
2023-05-14T11:52:38.948Z,22.95
2023-05-14T11:57:43.001Z,23.22
2023-05-14T12:02:49.311Z,23.45
2023-05-14T12:07:52.594Z,23.54
2023-05-14T12:12:56.108Z,23.42
2023-05-14T12:18:02.199Z,23.58
2023-05-14T12:23:06.157Z,23.86
2023-05-14T12:28:15.978Z,23.82
2023-05-14T12:33:23.083Z,24.24
2023-05-14T12:38:26.108Z,24.43
2023-05-14T12:43:31.625Z,24.77
2023-05-14T12:48:37.256Z,24.63
2023-05-14T12:53:40.223Z,24.49
2023-05-14T12:58:43.750Z,24.28
2023-05-14T13:03:48.634Z,24.29
2023-05-14T13:08:52.040Z,24.67
2023-05-14T13:13:55.244Z,24.99
2023-05-14T13:19:00.186Z,24.93
2023-05-14T13:24:03.334Z,24.77
2023-05-14T13:29:07.159Z,24.89
2023-05-14T13:34:13.152Z,25.10
2023-05-14T13:39:16.668Z,25.03
2023-05-14T13:44:23.670Z,24.94
2023-05-14T13:49:29.629Z,24.77
2023-05-14T13:54:32.860Z,24.35
2023-05-14T13:59:36.902Z,24.18
2023-05-14T14:04:41.266Z,24.77
2023-05-14T14:09:45.393Z,25.05
2023-05-14T14:14:48.660Z,24.79
2023-05-14T14:19:53.005Z,24.63
2023-05-14T14:24:56.450Z,24.74
2023-05-14T14:29:59.602Z,24.84
2023-05-14T14:35:04.112Z,24.47
2023-05-14T14:40:09.940Z,24.40
2023-05-14T14:45:13.662Z,24.28
2023-05-14T14:50:18.251Z,24.30
2023-05-14T14:55:21.833Z,24.19
2023-05-14T15:00:25.806Z,24.13
2023-05-14T15:05:30.327Z,23.91
2023-05-14T15:10:37.817Z,23.78
2023-05-14T15:15:40.998Z,23.86
2023-05-14T15:20:45.690Z,23.66
2023-05-14T15:25:50.210Z,23.61
2023-05-14T15:30:53.548Z,23.36
2023-05-14T15:35:58.181Z,23.32
2023-05-14T15:41:01.735Z,23.00
2023-05-14T15:46:05.062Z,22.82
2023-05-14T15:51:09.832Z,22.48
2023-05-14T15:56:13.308Z,22.44
2023-05-14T16:01:16.801Z,22.40
2023-05-14T16:06:21.648Z,22.55
2023-05-14T16:11:24.872Z,22.33
2023-05-14T16:16:27.940Z,21.95
2023-05-14T16:21:43.950Z,22.02
2023-05-14T16:26:47.129Z,21.88
2023-05-14T16:31:50.984Z,21.41
2023-05-14T16:36:55.722Z,20.96
2023-05-14T16:41:58.769Z,20.70
2023-05-14T16:47:02.226Z,20.41
2023-05-14T16:52:08.991Z,20.05
2023-05-14T16:57:12.023Z,19.64
2023-05-14T17:02:15.614Z,19.37
2023-05-14T17:07:20.244Z,19.38
2023-05-14T17:12:23.652Z,19.18
2023-05-14T17:17:26.853Z,18.94
2023-05-14T17:22:31.942Z,18.70
2023-05-14T17:27:36.181Z,18.26
2023-05-14T17:32:39.369Z,17.93
2023-05-14T17:37:44.045Z,17.78
2023-05-14T17:42:47.187Z,17.47
2023-05-14T17:47:51.329Z,17.34
2023-05-14T17:52:56.779Z,17.24
2023-05-14T17:57:59.898Z,16.88
2023-05-14T18:03:03.049Z,16.64
2023-05-14T18:08:08.926Z,16.59
2023-05-14T18:13:12.086Z,16.24
2023-05-14T18:18:17.156Z,16.30
2023-05-14T18:23:21.783Z,16.03
2023-05-14T18:28:25.206Z,15.91
2023-05-14T18:33:28.596Z,15.80
2023-05-14T18:38:34.734Z,15.76
2023-05-14T18:43:37.819Z,15.70
2023-05-14T18:48:41.573Z,15.58
2023-05-14T18:53:46.378Z,15.50
2023-05-14T18:58:52.281Z,15.30
2023-05-14T19:03:56.773Z,15.19
2023-05-14T19:09:01.860Z,15.15
2023-05-14T19:14:05.000Z,15.03
2023-05-14T19:19:09.083Z,14.92
2023-05-14T19:24:13.771Z,14.83
2023-05-14T19:29:16.955Z,14.64
2023-05-14T19:34:20.093Z,14.46
2023-05-14T19:39:25.031Z,14.05
2023-05-14T19:44:30.272Z,14.06
2023-05-14T19:49:33.517Z,13.95
2023-05-14T19:54:38.031Z,14.05
2023-05-14T19:59:41.464Z,13.96
2023-05-14T20:04:46.346Z,13.95
2023-05-14T20:09:51.358Z,13.82
2023-05-14T20:14:54.611Z,13.82
2023-05-14T20:19:57.741Z,13.74
2023-05-14T20:25:02.550Z,13.65
2023-05-14T20:30:07.277Z,13.62
2023-05-14T20:35:10.900Z,13.52
2023-05-14T20:40:19.189Z,13.46
2023-05-14T20:45:22.448Z,13.45
2023-05-14T20:50:27.145Z,13.33
2023-05-14T20:55:32.126Z,12.88
2023-05-14T21:00:35.264Z,12.90
2023-05-14T21:05:38.314Z,13.13
2023-05-14T21:10:42.928Z,13.10
2023-05-14T21:15:45.998Z,12.99
2023-05-14T21:20:52.370Z,12.73
2023-05-14T21:25:56.995Z,12.93
2023-05-14T21:31:00.279Z,12.73
2023-05-14T21:36:03.781Z,12.70
2023-05-14T21:41:08.249Z,12.60
2023-05-14T21:46:12.321Z,12.21
2023-05-14T21:51:16.461Z,12.40
2023-05-14T21:56:21.122Z,12.03
2023-05-14T22:01:24.372Z,12.25
2023-05-14T22:06:27.550Z,11.91
2023-05-14T22:11:35.239Z,12.15
2023-05-14T22:16:38.750Z,12.16
2023-05-14T22:21:41.764Z,12.04
2023-05-14T22:26:46.208Z,12.04
2023-05-14T22:31:49.559Z,11.95
2023-05-14T22:36:52.886Z,11.94
2023-05-14T22:41:57.839Z,11.91
2023-05-14T22:47:01.361Z,11.84
2023-05-14T22:52:04.825Z,11.77
2023-05-14T22:57:09.365Z,11.75
2023-05-14T23:02:13.027Z,11.74
2023-05-14T23:07:16.534Z,11.78
2023-05-14T23:12:21.005Z,11.83
2023-05-14T23:17:24.241Z,11.75
2023-05-14T23:22:27.569Z,11.59
2023-05-14T23:27:31.995Z,11.51
2023-05-14T23:32:35.120Z,11.35
2023-05-14T23:37:42.656Z,11.25
2023-05-14T23:42:50.629Z,11.20
2023-05-14T23:47:54.665Z,11.12
2023-05-14T23:52:57.904Z,11.04
2023-05-14T23:58:02.655Z,10.87
